Información del aeropuerto NTAA

Información de pista
Pista 04 Longitud 11360 ft Anchura 148 ft
Elevación 5 ft Umbral 1120 ft Rumbo 54
Pista 22 Longitud 11360 ft Anchura 148 ft
Elevación 5 ft Umbral 390 ft Rumbo 234
Frecuencias del aeropuerto
Tipo APP Nombre APP Frecuencia 118.1 MHZ
Tipo ATIS Nombre ATIS Frecuencia 128.8 MHZ
Tipo GND Nombre GND Frecuencia 121.9 MHZ
Tipo TWR Nombre TWR Frecuencia 118.1 MHZ
Radioayudas del aeropuerto
Tipo NDB Nombre Tahiti Faaa Frecuencia 305 KHZ
Tipo VOR-DME Nombre Tahiti Faaa Frecuencia 112900 KHZ
Información meteorológica del aeropuerto y NOTAM
ADDS - METARS form results

(0012 UTC 06 May 2021)
Data provider http://aviationweather.gov/metar/data/
 
METAR text: NTAA 060000Z 05014KT 9999 FEW025 31/24 Q1013 NOSIG
Conditions at: NTAA (TAHITI-FAAA POLY, WS) observed 0000 UTC 06 May 2021
Temperature: 31.0°C (88°F)
Dewpoint: 24.0°C (75°F) [RH = 66%]
Pressure (altimeter): 29.91 inches Hg (1013.0 mb)
Winds: from the NE (50 degrees) at 16 MPH (14 knots; 7.2 m/s)
Visibility: 6 or more miles (10+ km)
Ceiling: at least 12,000 feet AGL
Clouds: few clouds at 2500 feet AGL
Weather: no significant weather observed at this time

METAR text: NTAA 052330Z 05014KT 9999 FEW025 31/25 Q1013 NOSIG
Conditions at: NTAA (TAHITI-FAAA POLY, WS) observed 2330 UTC 05 May 2021
Temperature: 31.0°C (88°F)
Dewpoint: 25.0°C (77°F) [RH = 71%]
Pressure (altimeter): 29.91 inches Hg (1013.0 mb)
Winds: from the NE (50 degrees) at 16 MPH (14 knots; 7.2 m/s)
Visibility: 6 or more miles (10+ km)
Ceiling: at least 12,000 feet AGL
Clouds: few clouds at 2500 feet AGL
Weather: no significant weather observed at this time

Forecast for: NTAA (TAHITI-FAAA POLY, WS)
Text: TAF NTAA 052300Z 0600/0706 04012KT 9999 FEW025
Forecast period: 0000 to 0300 UTC 06 May 2021
Forecast type: FROM: standard forecast or significant change
Winds: from the NE (40 degrees) at 14 MPH (12 knots; 6.2 m/s)
Visibility: 6 or more miles (10+ km)
Ceiling: at least 12,000 feet AGL
Clouds: few clouds at 2500 feet AGL
Weather: no significant weather forecast for this period
Text: BECMG 0603/0605 VRB05KT
Forecast period: 0300 UTC 06 May 2021 to 0600 UTC 07 May 2021
Forecast type: BECOMING: Conditions expected to become as follows by 0500 UTC 06 May 2021
Winds: variable direction winds at 6 MPH (5 knots; 2.6 m/s)
Visibility: 6 or more miles (10+ km)
Ceiling: at least 12,000 feet AGL
Clouds: few clouds at 2500 feet AGL
Weather: no significant weather forecast for this period
Text: PROB30
Forecast period: 0500 to 0800 UTC 06 May 2021
Forecast type: TEMPORARY: The following changes expected for less than half the time period
Visibility: 2.80 miles (4.51 km)
Ceiling: at least 12,000 feet AGL
Clouds: scattered clouds at 2000 feet AGL
scattered clouds at 4500 feet AGL
Weather: SHRA  (rain showers)